sensor_id;sensor_type;location;lat;lon;timestamp;pressure;altitude;pressure_sealevel;temperature;humidity
10310;BME280;5200;43.236;27.986;2024-02-14T00:00:56;99566.50;;;6.76;100.00
10310;BME280;5200;43.236;27.986;2024-02-14T00:03:23;99551.31;;;6.70;100.00
10310;BME280;5200;43.236;27.986;2024-02-14T00:05:50;99538.50;;;6.56;100.00
10310;BME280;5200;43.236;27.986;2024-02-14T00:08:17;99554.88;;;6.69;100.00
10310;BME280;5200;43.236;27.986;2024-02-14T00:10:44;99530.00;;;6.54;100.00
10310;BME280;5200;43.236;27.986;2024-02-14T00:13:12;99561.22;;;6.55;100.00
10310;BME280;5200;43.236;27.986;2024-02-14T00:15:39;99559.66;;;6.53;100.00
10310;BME280;5200;43.236;27.986;2024-02-14T00:18:08;99565.16;;;6.50;100.00
10310;BME280;5200;43.236;27.986;2024-02-14T00:20:35;99565.41;;;6.47;100.00
10310;BME280;5200;43.236;27.986;2024-02-14T00:23:02;99572.28;;;6.48;100.00
10310;BME280;5200;43.236;27.986;2024-02-14T00:25:29;99569.94;;;6.45;100.00
10310;BME280;5200;43.236;27.986;2024-02-14T00:27:56;99567.53;;;6.42;100.00
10310;BME280;5200;43.236;27.986;2024-02-14T00:30:26;99562.31;;;6.42;100.00
10310;BME280;5200;43.236;27.986;2024-02-14T00:32:52;99539.56;;;6.21;100.00
10310;BME280;5200;43.236;27.986;2024-02-14T00:35:21;99542.38;;;6.29;100.00
10310;BME280;5200;43.236;27.986;2024-02-14T00:37:48;99563.38;;;6.39;100.00
10310;BME280;5200;43.236;27.986;2024-02-14T00:40:15;99542.63;;;6.26;100.00
10310;BME280;5200;43.236;27.986;2024-02-14T00:42:43;99567.91;;;6.37;100.00
10310;BME280;5200;43.236;27.986;2024-02-14T00:45:10;99557.81;;;6.32;100.00
10310;BME280;5200;43.236;27.986;2024-02-14T00:47:37;99570.19;;;6.30;100.00
10310;BME280;5200;43.236;27.986;2024-02-14T00:50:04;99570.19;;;6.30;100.00
10310;BME280;5200;43.236;27.986;2024-02-14T00:52:33;99550.94;;;6.09;100.00
10310;BME280;5200;43.236;27.986;2024-02-14T00:54:59;99574.22;;;6.23;100.00
10310;BME280;5200;43.236;27.986;2024-02-14T00:57:28;99571.13;;;6.18;100.00
10310;BME280;5200;43.236;27.986;2024-02-14T00:59:55;99581.56;;;6.18;100.00
10310;BME280;5200;43.236;27.986;2024-02-14T01:02:23;99578.50;;;6.13;100.00
10310;BME280;5200;43.236;27.986;2024-02-14T01:04:51;99579.56;;;6.10;100.00
10310;BME280;5200;43.236;27.986;2024-02-14T01:07:18;99567.56;;;5.97;100.00
10310;BME280;5200;43.236;27.986;2024-02-14T01:09:46;99589.31;;;6.08;100.00
10310;BME280;5200;43.236;27.986;2024-02-14T01:12:13;99590.84;;;6.11;100.00
10310;BME280;5200;43.236;27.986;2024-02-14T01:14:40;99586.59;;;6.10;100.00
10310;BME280;5200;43.236;27.986;2024-02-14T01:17:07;99586.94;;;6.05;100.00
10310;BME280;5200;43.236;27.986;2024-02-14T01:19:34;99585.88;;;6.08;100.00
10310;BME280;5200;43.236;27.986;2024-02-14T01:22:01;99594.41;;;6.10;100.00
10310;BME280;5200;43.236;27.986;2024-02-14T01:24:28;99586.47;;;6.00;100.00
10310;BME280;5200;43.236;27.986;2024-02-14T01:26:57;99591.31;;;6.16;100.00
10310;BME280;5200;43.236;27.986;2024-02-14T01:29:23;99592.28;;;6.15;100.00
10310;BME280;5200;43.236;27.986;2024-02-14T01:31:50;99595.59;;;6.17;100.00
10310;BME280;5200;43.236;27.986;2024-02-14T01:34:17;99604.63;;;6.13;100.00
10310;BME280;5200;43.236;27.986;2024-02-14T01:36:44;99594.53;;;6.20;100.00
10310;BME280;5200;43.236;27.986;2024-02-14T01:39:11;99604.72;;;6.23;100.00
10310;BME280;5200;43.236;27.986;2024-02-14T01:41:38;99606.97;;;6.16;100.00
10310;BME280;5200;43.236;27.986;2024-02-14T01:44:06;99585.41;;;6.03;100.00
10310;BME280;5200;43.236;27.986;2024-02-14T01:46:33;99606.75;;;6.08;100.00
10310;BME280;5200;43.236;27.986;2024-02-14T01:49:00;99620.53;;;6.10;100.00
10310;BME280;5200;43.236;27.986;2024-02-14T01:51:30;99617.44;;;6.05;100.00
10310;BME280;5200;43.236;27.986;2024-02-14T01:53:58;99599.63;;;5.99;100.00
10310;BME280;5200;43.236;27.986;2024-02-14T01:56:25;99608.28;;;5.99;100.00
10310;BME280;5200;43.236;27.986;2024-02-14T01:58:53;99622.22;;;6.00;100.00
10310;BME280;5200;43.236;27.986;2024-02-14T02:01:21;99614.78;;;5.93;100.00
10310;BME280;5200;43.236;27.986;2024-02-14T02:03:49;99620.41;;;6.00;100.00
10310;BME280;5200;43.236;27.986;2024-02-14T02:06:16;99616.03;;;6.01;100.00
10310;BME280;5200;43.236;27.986;2024-02-14T02:08:43;99614.78;;;5.93;100.00
10310;BME280;5200;43.236;27.986;2024-02-14T02:11:10;99617.66;;;6.02;100.00
10310;BME280;5200;43.236;27.986;2024-02-14T02:13:37;99610.66;;;5.91;100.00
10310;BME280;5200;43.236;27.986;2024-02-14T02:16:06;99621.25;;;6.01;100.00
10310;BME280;5200;43.236;27.986;2024-02-14T02:18:34;99622.88;;;6.02;100.00
10310;BME280;5200;43.236;27.986;2024-02-14T02:21:02;99612.69;;;5.99;100.00
10310;BME280;5200;43.236;27.986;2024-02-14T02:23:33;99605.78;;;5.86;100.00
10310;BME280;5200;43.236;27.986;2024-02-14T02:26:00;99611.56;;;5.90;100.00
10310;BME280;5200;43.236;27.986;2024-02-14T02:28:27;99616.94;;;5.88;100.00
10310;BME280;5200;43.236;27.986;2024-02-14T02:30:54;99611.47;;;5.91;100.00
10310;BME280;5200;43.236;27.986;2024-02-14T02:33:21;99615.03;;;5.90;100.00
10310;BME280;5200;43.236;27.986;2024-02-14T02:35:48;99620.25;;;5.90;100.00
10310;BME280;5200;43.236;27.986;2024-02-14T02:38:15;99605.75;;;5.75;100.00
10310;BME280;5200;43.236;27.986;2024-02-14T02:40:44;99621.69;;;5.83;100.00
10310;BME280;5200;43.236;27.986;2024-02-14T02:43:11;99627.25;;;5.79;100.00
10310;BME280;5200;43.236;27.986;2024-02-14T02:45:38;99621.53;;;5.73;100.00
10310;BME280;5200;43.236;27.986;2024-02-14T02:48:05;99629.50;;;5.72;100.00
10310;BME280;5200;43.236;27.986;2024-02-14T02:50:32;99604.06;;;5.63;100.00
10310;BME280;5200;43.236;27.986;2024-02-14T02:52:59;99632.31;;;5.69;100.00
10310;BME280;5200;43.236;27.986;2024-02-14T02:55:26;99635.97;;;5.66;100.00
10310;BME280;5200;43.236;27.986;2024-02-14T02:57:54;99637.78;;;5.66;100.00
10310;BME280;5200;43.236;27.986;2024-02-14T03:00:21;99634.06;;;5.57;100.00
10310;BME280;5200;43.236;27.986;2024-02-14T03:02:48;99621.16;;;5.56;100.00
10310;BME280;5200;43.236;27.986;2024-02-14T03:05:15;99609.94;;;5.42;100.00
10310;BME280;5200;43.236;27.986;2024-02-14T03:07:44;99608.78;;;5.46;100.00
10310;BME280;5200;43.236;27.986;2024-02-14T03:10:13;99633.22;;;5.57;100.00
10310;BME280;5200;43.236;27.986;2024-02-14T03:12:44;99630.75;;;5.55;100.00
10310;BME280;5200;43.236;27.986;2024-02-14T03:15:13;99606.41;;;5.43;100.00
10310;BME280;5200;43.236;27.986;2024-02-14T03:17:40;99635.34;;;5.51;100.00
10310;BME280;5200;43.236;27.986;2024-02-14T03:20:08;99639.38;;;5.44;100.00
10310;BME280;5200;43.236;27.986;2024-02-14T03:22:38;99618.06;;;5.26;100.00
10310;BME280;5200;43.236;27.986;2024-02-14T03:25:08;99645.03;;;5.38;100.00
10310;BME280;5200;43.236;27.986;2024-02-14T03:27:36;99620.09;;;5.23;100.00
10310;BME280;5200;43.236;27.986;2024-02-14T03:30:04;99647.88;;;5.35;100.00
10310;BME280;5200;43.236;27.986;2024-02-14T03:32:32;99661.25;;;5.30;100.00
10310;BME280;5200;43.236;27.986;2024-02-14T03:34:59;99658.06;;;5.27;100.00
10310;BME280;5200;43.236;27.986;2024-02-14T03:37:26;99655.44;;;5.27;100.00
10310;BME280;5200;43.236;27.986;2024-02-14T03:39:53;99634.53;;;5.16;100.00
10310;BME280;5200;43.236;27.986;2024-02-14T03:42:20;99641.72;;;5.12;100.00
10310;BME280;5200;43.236;27.986;2024-02-14T03:44:47;99658.72;;;5.18;100.00
10310;BME280;5200;43.236;27.986;2024-02-14T03:47:13;99649.56;;;5.12;100.00
10310;BME280;5200;43.236;27.986;2024-02-14T03:49:42;99641.63;;;5.14;100.00
10310;BME280;5200;43.236;27.986;2024-02-14T03:52:08;99673.31;;;5.20;100.00
10310;BME280;5200;43.236;27.986;2024-02-14T03:54:37;99666.03;;;5.13;100.00
10310;BME280;5200;43.236;27.986;2024-02-14T03:57:04;99695.44;;;5.15;100.00
10310;BME280;5200;43.236;27.986;2024-02-14T03:59:36;99697.31;;;5.13;100.00
10310;BME280;5200;43.236;27.986;2024-02-14T04:02:04;99704.88;;;5.04;100.00
10310;BME280;5200;43.236;27.986;2024-02-14T04:04:32;99709.03;;;5.07;100.00
10310;BME280;5200;43.236;27.986;2024-02-14T04:07:02;99710.91;;;5.05;100.00
10310;BME280;5200;43.236;27.986;2024-02-14T04:09:28;99711.97;;;5.02;100.00
10310;BME280;5200;43.236;27.986;2024-02-14T04:11:55;99715.06;;;5.07;100.00
10310;BME280;5200;43.236;27.986;2024-02-14T04:14:22;99719.69;;;5.04;100.00
10310;BME280;5200;43.236;27.986;2024-02-14T04:16:49;99725.00;;;5.02;100.00
10310;BME280;5200;43.236;27.986;2024-02-14T04:19:16;99692.59;;;4.94;100.00
10310;BME280;5200;43.236;27.986;2024-02-14T04:21:43;99710.50;;;4.98;100.00
10310;BME280;5200;43.236;27.986;2024-02-14T04:24:11;99715.53;;;5.01;100.00
10310;BME280;5200;43.236;27.986;2024-02-14T04:26:38;99709.75;;;5.09;100.00
10310;BME280;5200;43.236;27.986;2024-02-14T04:29:05;99699.75;;;5.03;100.00
10310;BME280;5200;43.236;27.986;2024-02-14T04:31:34;99718.00;;;5.16;100.00
10310;BME280;5200;43.236;27.986;2024-02-14T04:34:01;99717.16;;;5.15;100.00
10310;BME280;5200;43.236;27.986;2024-02-14T04:36:27;99709.22;;;5.17;100.00
10310;BME280;5200;43.236;27.986;2024-02-14T04:38:57;99695.06;;;5.08;100.00
10310;BME280;5200;43.236;27.986;2024-02-14T04:41:25;99717.16;;;5.15;100.00
10310;BME280;5200;43.236;27.986;2024-02-14T04:43:52;99705.84;;;5.03;100.00
10310;BME280;5200;43.236;27.986;2024-02-14T04:46:19;99711.75;;;5.05;100.00
10310;BME280;5200;43.236;27.986;2024-02-14T04:48:47;99727.19;;;5.08;100.00
10310;BME280;5200;43.236;27.986;2024-02-14T04:51:14;99749.94;;;5.06;100.00
10310;BME280;5200;43.236;27.986;2024-02-14T04:53:41;99741.16;;;5.07;100.00
10310;BME280;5200;43.236;27.986;2024-02-14T04:56:08;99740.97;;;5.11;100.00
10310;BME280;5200;43.236;27.986;2024-02-14T04:58:36;99746.19;;;5.11;100.00
10310;BME280;5200;43.236;27.986;2024-02-14T05:01:03;99727.94;;;4.98;100.00
10310;BME280;5200;43.236;27.986;2024-02-14T05:03:30;99767.13;;;5.09;100.00
10310;BME280;5200;43.236;27.986;2024-02-14T05:05:57;99767.03;;;5.11;100.00
10310;BME280;5200;43.236;27.986;2024-02-14T05:08:24;99777.66;;;5.07;100.00
10310;BME280;5200;43.236;27.986;2024-02-14T05:10:51;99790.59;;;5.09;100.00
10310;BME280;5200;43.236;27.986;2024-02-14T05:13:18;99789.56;;;5.12;100.00
10310;BME280;5200;43.236;27.986;2024-02-14T05:15:46;99795.72;;;5.11;100.00
10310;BME280;5200;43.236;27.986;2024-02-14T05:18:13;99796.41;;;5.13;100.00
10310;BME280;5200;43.236;27.986;2024-02-14T05:20:40;99798.53;;;5.07;100.00
10310;BME280;5200;43.236;27.986;2024-02-14T05:23:07;99793.31;;;5.07;100.00
10310;BME280;5200;43.236;27.986;2024-02-14T05:25:34;99819.19;;;5.11;100.00
10310;BME280;5200;43.236;27.986;2024-02-14T05:28:01;99805.34;;;4.97;100.00
10310;BME280;5200;43.236;27.986;2024-02-14T05:30:28;99813.13;;;5.10;100.00
10310;BME280;5200;43.236;27.986;2024-02-14T05:32:56;99820.44;;;5.05;100.00
10310;BME280;5200;43.236;27.986;2024-02-14T05:35:23;99803.69;;;4.96;100.00
10310;BME280;5200;43.236;27.986;2024-02-14T05:37:50;99844.09;;;5.15;100.00
10310;BME280;5200;43.236;27.986;2024-02-14T05:40:17;99824.69;;;5.19;100.00
10310;BME280;5200;43.236;27.986;2024-02-14T05:42:44;99837.31;;;5.25;100.00
10310;BME280;5200;43.236;27.986;2024-02-14T05:45:11;99837.59;;;5.33;100.00
10310;BME280;5200;43.236;27.986;2024-02-14T05:47:38;99838.97;;;5.26;100.00
10310;BME280;5200;43.236;27.986;2024-02-14T05:50:07;99833.75;;;5.26;100.00
10310;BME280;5200;43.236;27.986;2024-02-14T05:52:37;99823.53;;;5.23;100.00
10310;BME280;5200;43.236;27.986;2024-02-14T05:55:04;99831.97;;;5.26;100.00
10310;BME280;5200;43.236;27.986;2024-02-14T05:57:31;99858.31;;;5.47;100.00
10310;BME280;5200;43.236;27.986;2024-02-14T05:59:58;99823.69;;;5.45;100.00
10310;BME280;5200;43.236;27.986;2024-02-14T06:02:25;99851.56;;;5.69;100.00
10310;BME280;5200;43.236;27.986;2024-02-14T06:04:52;99848.75;;;5.72;100.00
10310;BME280;5200;43.236;27.986;2024-02-14T06:07:20;99831.91;;;5.76;100.00
10310;BME280;5200;43.236;27.986;2024-02-14T06:09:47;99826.91;;;5.73;100.00
10310;BME280;5200;43.236;27.986;2024-02-14T06:12:14;99844.09;;;5.88;100.00
10310;BME280;5200;43.236;27.986;2024-02-14T06:14:41;99856.91;;;5.91;100.00
10310;BME280;5200;43.236;27.986;2024-02-14T06:17:08;99858.41;;;5.96;100.00
10310;BME280;5200;43.236;27.986;2024-02-14T06:19:35;99851.44;;;6.07;100.00
10310;BME280;5200;43.236;27.986;2024-02-14T06:22:04;99834.22;;;6.05;100.00
10310;BME280;5200;43.236;27.986;2024-02-14T06:24:32;99867.44;;;6.27;100.00
10310;BME280;5200;43.236;27.986;2024-02-14T06:26:59;99860.69;;;6.35;100.00
10310;BME280;5200;43.236;27.986;2024-02-14T06:29:26;99845.41;;;6.42;100.00
10310;BME280;5200;43.236;27.986;2024-02-14T06:31:53;99869.56;;;6.68;100.00
10310;BME280;5200;43.236;27.986;2024-02-14T06:34:20;99857.91;;;6.72;100.00
10310;BME280;5200;43.236;27.986;2024-02-14T06:36:47;99856.25;;;6.71;100.00
10310;BME280;5200;43.236;27.986;2024-02-14T06:39:13;99876.22;;;6.72;100.00
10310;BME280;5200;43.236;27.986;2024-02-14T06:41:42;99870.78;;;6.75;100.00
10310;BME280;5200;43.236;27.986;2024-02-14T06:44:10;99869.34;;;6.71;100.00
10310;BME280;5200;43.236;27.986;2024-02-14T06:46:37;99869.31;;;6.60;100.00
10310;BME280;5200;43.236;27.986;2024-02-14T06:49:04;99880.47;;;6.62;100.00
10310;BME280;5200;43.236;27.986;2024-02-14T06:51:31;99889.78;;;6.66;100.00
10310;BME280;5200;43.236;27.986;2024-02-14T06:53:58;99884.53;;;6.66;100.00
10310;BME280;5200;43.236;27.986;2024-02-14T06:56:25;99887.25;;;6.65;100.00
10310;BME280;5200;43.236;27.986;2024-02-14T06:58:53;99886.44;;;6.64;100.00
10310;BME280;5200;43.236;27.986;2024-02-14T07:01:25;99885.75;;;6.73;100.00
10310;BME280;5200;43.236;27.986;2024-02-14T07:03:52;99888.25;;;6.75;100.00
10310;BME280;5200;43.236;27.986;2024-02-14T07:06:19;99887.19;;;6.77;100.00
10310;BME280;5200;43.236;27.986;2024-02-14T07:08:46;99887.53;;;6.84;100.00
10310;BME280;5200;43.236;27.986;2024-02-14T07:11:14;99908.81;;;6.91;100.00
10310;BME280;5200;43.236;27.986;2024-02-14T07:13:42;99887.19;;;6.77;100.00
10310;BME280;5200;43.236;27.986;2024-02-14T07:16:10;99905.75;;;6.97;100.00
10310;BME280;5200;43.236;27.986;2024-02-14T07:18:37;99906.22;;;7.02;100.00
10310;BME280;5200;43.236;27.986;2024-02-14T07:21:04;99911.47;;;7.02;100.00
10310;BME280;5200;43.236;27.986;2024-02-14T07:23:31;99911.22;;;7.05;100.00
10310;BME280;5200;43.236;27.986;2024-02-14T07:25:59;99905.53;;;7.11;100.00
10310;BME280;5200;43.236;27.986;2024-02-14T07:28:27;99912.91;;;7.17;100.00
10310;BME280;5200;43.236;27.986;2024-02-14T07:30:53;99879.47;;;6.98;100.00
10310;BME280;5200;43.236;27.986;2024-02-14T07:33:22;99928.34;;;7.09;100.00
10310;BME280;5200;43.236;27.986;2024-02-14T07:35:49;99920.72;;;6.95;100.00
10310;BME280;5200;43.236;27.986;2024-02-14T07:38:16;99908.81;;;6.91;100.00
10310;BME280;5200;43.236;27.986;2024-02-14T07:40:43;99925.72;;;7.09;100.00
10310;BME280;5200;43.236;27.986;2024-02-14T07:43:10;99897.19;;;6.95;100.00
10310;BME280;5200;43.236;27.986;2024-02-14T07:45:37;99929.53;;;7.05;100.00
10310;BME280;5200;43.236;27.986;2024-02-14T07:48:04;99904.31;;;7.04;100.00
10310;BME280;5200;43.236;27.986;2024-02-14T07:50:33;99916.22;;;7.08;100.00
10310;BME280;5200;43.236;27.986;2024-02-14T07:53:01;99923.94;;;7.10;100.00
10310;BME280;5200;43.236;27.986;2024-02-14T07:55:28;99924.53;;;7.02;100.00
10310;BME280;5200;43.236;27.986;2024-02-14T07:57:54;99924.88;;;6.97;100.00
10310;BME280;5200;43.236;27.986;2024-02-14T08:00:21;99924.06;;;6.97;100.00
10310;BME280;5200;43.236;27.986;2024-02-14T08:02:49;99924.78;;;6.99;100.00
10310;BME280;5200;43.236;27.986;2024-02-14T08:05:16;99910.25;;;6.95;100.00
10310;BME280;5200;43.236;27.986;2024-02-14T08:07:45;99947.84;;;7.05;100.00
10310;BME280;5200;43.236;27.986;2024-02-14T08:10:12;99923.59;;;7.03;100.00
10310;BME280;5200;43.236;27.986;2024-02-14T08:12:39;99913.84;;;6.94;100.00
10310;BME280;5200;43.236;27.986;2024-02-14T08:15:07;99945.94;;;7.07;100.00
10310;BME280;5200;43.236;27.986;2024-02-14T08:17:34;99940.00;;;7.16;100.00
10310;BME280;5200;43.236;27.986;2024-02-14T08:20:01;99920.75;;;7.17;100.00
10310;BME280;5200;43.236;27.986;2024-02-14T08:22:29;99911.00;;;7.08;100.00
10310;BME280;5200;43.236;27.986;2024-02-14T08:24:57;99909.09;;;7.10;100.00
10310;BME280;5200;43.236;27.986;2024-02-14T08:27:24;99941.69;;;7.17;100.00
10310;BME280;5200;43.236;27.986;2024-02-14T08:29:53;99937.16;;;7.08;100.00
10310;BME280;5200;43.236;27.986;2024-02-14T08:32:20;99944.03;;;7.09;100.00
10310;BME280;5200;43.236;27.986;2024-02-14T08:34:47;99932.00;;;6.95;100.00
10310;BME280;5200;43.236;27.986;2024-02-14T08:37:15;99934.59;;;6.84;100.00
10310;BME280;5200;43.236;27.986;2024-02-14T08:39:42;99967.81;;;6.95;100.00
10310;BME280;5200;43.236;27.986;2024-02-14T08:42:11;99935.81;;;6.91;100.00
10310;BME280;5200;43.236;27.986;2024-02-14T08:44:38;99955.00;;;7.03;100.00
10310;BME280;5200;43.236;27.986;2024-02-14T08:47:06;99975.34;;;7.11;100.00
10310;BME280;5200;43.236;27.986;2024-02-14T08:49:34;99978.78;;;7.11;100.00
10310;BME280;5200;43.236;27.986;2024-02-14T08:52:01;99948.69;;;7.06;100.00
10310;BME280;5200;43.236;27.986;2024-02-14T08:54:28;99954.19;;;7.25;100.00
10310;BME280;5200;43.236;27.986;2024-02-14T08:56:54;99972.84;;;7.20;100.00
10310;BME280;5200;43.236;27.986;2024-02-14T08:59:25;99977.13;;;7.22;100.00
10310;BME280;5200;43.236;27.986;2024-02-14T09:01:52;99974.28;;;7.25;100.00
10310;BME280;5200;43.236;27.986;2024-02-14T09:04:19;99935.94;;;7.12;100.00
10310;BME280;5200;43.236;27.986;2024-02-14T09:06:46;99979.38;;;7.26;100.00
10310;BME280;5200;43.236;27.986;2024-02-14T09:09:13;99954.28;;;7.12;100.00
10310;BME280;5200;43.236;27.986;2024-02-14T09:11:41;99955.72;;;7.16;100.00
10310;BME280;5200;43.236;27.986;2024-02-14T09:14:08;99963.81;;;7.36;100.00
10310;BME280;5200;43.236;27.986;2024-02-14T09:16:37;99935.75;;;7.27;100.00
10310;BME280;5200;43.236;27.986;2024-02-14T09:19:04;99965.50;;;7.48;100.00
10310;BME280;5200;43.236;27.986;2024-02-14T09:21:33;99956.69;;;7.60;100.00
10310;BME280;5200;43.236;27.986;2024-02-14T09:24:01;99958.59;;;7.70;100.00
10310;BME280;5200;43.236;27.986;2024-02-14T09:26:28;99928.72;;;7.61;100.00
10310;BME280;5200;43.236;27.986;2024-02-14T09:28:55;99950.47;;;7.73;100.00
10310;BME280;5200;43.236;27.986;2024-02-14T09:31:22;99946.19;;;7.83;100.00
10310;BME280;5200;43.236;27.986;2024-02-14T09:33:50;99937.81;;;8.00;100.00
10310;BME280;5200;43.236;27.986;2024-02-14T09:36:22;99921.00;;;8.14;100.00
10310;BME280;5200;43.236;27.986;2024-02-14T09:38:48;99934.53;;;8.42;100.00
10310;BME280;5200;43.236;27.986;2024-02-14T09:41:20;99925.41;;;8.46;100.00
10310;BME280;5200;43.236;27.986;2024-02-14T09:43:48;99979.09;;;8.31;100.00
10310;BME280;5200;43.236;27.986;2024-02-14T09:46:15;99915.19;;;7.99;100.00
10310;BME280;5200;43.236;27.986;2024-02-14T09:48:43;99946.03;;;8.07;100.00
10310;BME280;5200;43.236;27.986;2024-02-14T09:51:12;99912.63;;;7.88;100.00
10310;BME280;5200;43.236;27.986;2024-02-14T09:53:40;99940.44;;;8.00;100.00
10310;BME280;5200;43.236;27.986;2024-02-14T09:56:09;99921.38;;;8.10;100.00
10310;BME280;5200;43.236;27.986;2024-02-14T09:58:36;99939.28;;;7.93;100.00
10310;BME280;5200;43.236;27.986;2024-02-14T10:01:04;99925.63;;;7.78;100.00
10310;BME280;5200;43.236;27.986;2024-02-14T10:03:32;99935.00;;;7.81;100.00
10310;BME280;5200;43.236;27.986;2024-02-14T10:05:59;99939.41;;;7.80;100.00
10310;BME280;5200;43.236;27.986;2024-02-14T10:08:27;99936.56;;;7.83;100.00
10310;BME280;5200;43.236;27.986;2024-02-14T10:10:56;99932.13;;;7.95;100.00
10310;BME280;5200;43.236;27.986;2024-02-14T10:13:26;99930.44;;;7.94;100.00
10310;BME280;5200;43.236;27.986;2024-02-14T10:15:53;99925.22;;;7.94;100.00
10310;BME280;5200;43.236;27.986;2024-02-14T10:18:20;99936.25;;;8.09;100.00
10310;BME280;5200;43.236;27.986;2024-02-14T10:20:55;99940.16;;;8.15;100.00
10310;BME280;5200;43.236;27.986;2024-02-14T10:23:22;99944.94;;;8.10;100.00
10310;BME280;5200;43.236;27.986;2024-02-14T10:25:51;99931.13;;;8.08;100.00
10310;BME280;5200;43.236;27.986;2024-02-14T10:28:20;99955.09;;;8.03;100.00
10310;BME280;5200;43.236;27.986;2024-02-14T10:30:48;99960.69;;;7.87;100.00
10310;BME280;5200;43.236;27.986;2024-02-14T10:33:16;99954.03;;;7.83;100.00
10310;BME280;5200;43.236;27.986;2024-02-14T10:35:43;99952.38;;;7.82;100.00
10310;BME280;5200;43.236;27.986;2024-02-14T10:38:11;99954.78;;;7.62;100.00
10310;BME280;5200;43.236;27.986;2024-02-14T10:40:38;99958.09;;;7.76;100.00
10310;BME280;5200;43.236;27.986;2024-02-14T10:43:07;99939.78;;;7.65;100.00
10310;BME280;5200;43.236;27.986;2024-02-14T10:45:35;99965.59;;;7.80;100.00
10310;BME280;5200;43.236;27.986;2024-02-14T10:48:04;99983.34;;;7.66;100.00
10310;BME280;5200;43.236;27.986;2024-02-14T10:50:33;99980.00;;;7.63;100.00
10310;BME280;5200;43.236;27.986;2024-02-14T10:53:04;99983.59;;;7.62;100.00
10310;BME280;5200;43.236;27.986;2024-02-14T10:55:33;99977.16;;;7.55;100.00
10310;BME280;5200;43.236;27.986;2024-02-14T10:58:01;99999.06;;;7.66;100.00
10310;BME280;5200;43.236;27.986;2024-02-14T11:00:31;99985.47;;;7.49;100.00
10310;BME280;5200;43.236;27.986;2024-02-14T11:02:58;100013.69;;;7.46;100.00
10310;BME280;5200;43.236;27.986;2024-02-14T11:05:27;99988.19;;;7.25;100.00
10310;BME280;5200;43.236;27.986;2024-02-14T11:07:54;99991.06;;;7.22;100.00
10310;BME280;5200;43.236;27.986;2024-02-14T11:10:22;99988.56;;;7.32;100.00
10310;BME280;5200;43.236;27.986;2024-02-14T11:12:49;100005.44;;;7.28;100.00
10310;BME280;5200;43.236;27.986;2024-02-14T11:15:19;99991.88;;;7.23;100.00
10310;BME280;5200;43.236;27.986;2024-02-14T11:17:48;100004.22;;;7.09;100.00
10310;BME280;5200;43.236;27.986;2024-02-14T11:20:18;100001.38;;;7.12;100.00
10310;BME280;5200;43.236;27.986;2024-02-14T11:22:55;99988.88;;;7.05;100.00
10310;BME280;5200;43.236;27.986;2024-02-14T11:25:29;100005.63;;;7.02;100.00
10310;BME280;5200;43.236;27.986;2024-02-14T11:27:59;100022.78;;;7.06;100.00
10310;BME280;5200;43.236;27.986;2024-02-14T11:30:31;100010.41;;;7.08;100.00
10310;BME280;5200;43.236;27.986;2024-02-14T11:33:20;100023.41;;;7.21;100.00
10310;BME280;5200;43.236;27.986;2024-02-14T11:35:49;100019.72;;;7.24;100.00
10310;BME280;5200;43.236;27.986;2024-02-14T11:38:16;100004.69;;;7.14;100.00
10310;BME280;5200;43.236;27.986;2024-02-14T11:40:43;100000.16;;;7.05;100.00
10310;BME280;5200;43.236;27.986;2024-02-14T11:43:12;100011.84;;;7.24;100.00
10310;BME280;5200;43.236;27.986;2024-02-14T11:45:40;99995.44;;;7.22;100.00
10310;BME280;5200;43.236;27.986;2024-02-14T11:48:09;99992.13;;;7.31;100.00
10310;BME280;5200;43.236;27.986;2024-02-14T11:50:38;100026.88;;;7.33;100.00
10310;BME280;5200;43.236;27.986;2024-02-14T11:53:05;100001.75;;;7.19;100.00
10310;BME280;5200;43.236;27.986;2024-02-14T11:55:34;100016.63;;;7.18;100.00
10310;BME280;5200;43.236;27.986;2024-02-14T11:58:03;99985.31;;;7.06;100.00
10310;BME280;5200;43.236;27.986;2024-02-14T12:00:30;100008.28;;;7.13;100.00
10310;BME280;5200;43.236;27.986;2024-02-14T12:02:57;100024.78;;;7.03;100.00
10310;BME280;5200;43.236;27.986;2024-02-14T12:05:24;100012.38;;;6.93;100.00
10310;BME280;5200;43.236;27.986;2024-02-14T12:07:53;100003.31;;;6.86;100.00
10310;BME280;5200;43.236;27.986;2024-02-14T12:10:20;100041.03;;;6.95;100.00
10310;BME280;5200;43.236;27.986;2024-02-14T12:12:48;100007.47;;;6.77;100.00
10310;BME280;5200;43.236;27.986;2024-02-14T12:15:16;100007.47;;;6.77;100.00
10310;BME280;5200;43.236;27.986;2024-02-14T12:17:45;100030.66;;;6.82;100.00
10310;BME280;5200;43.236;27.986;2024-02-14T12:20:14;100020.22;;;6.82;100.00
10310;BME280;5200;43.236;27.986;2024-02-14T12:22:41;100020.97;;;6.71;100.00
10310;BME280;5200;43.236;27.986;2024-02-14T12:25:10;100031.69;;;6.80;100.00
10310;BME280;5200;43.236;27.986;2024-02-14T12:27:37;100032.44;;;6.82;100.00
10310;BME280;5200;43.236;27.986;2024-02-14T12:30:06;100030.59;;;6.95;100.00
10310;BME280;5200;43.236;27.986;2024-02-14T12:32:33;100053.06;;;6.97;100.00
10310;BME280;5200;43.236;27.986;2024-02-14T12:35:00;100034.38;;;6.91;100.00
10310;BME280;5200;43.236;27.986;2024-02-14T12:37:27;100044.81;;;6.91;100.00
10310;BME280;5200;43.236;27.986;2024-02-14T12:39:54;100032.72;;;6.90;100.00
10310;BME280;5200;43.236;27.986;2024-02-14T12:42:23;100045.84;;;7.01;100.00
10310;BME280;5200;43.236;27.986;2024-02-14T12:44:54;100038.38;;;6.84;100.00
10310;BME280;5200;43.236;27.986;2024-02-14T12:47:21;100041.16;;;6.69;100.00
10310;BME280;5200;43.236;27.986;2024-02-14T12:49:48;100049.59;;;6.62;100.00
10310;BME280;5200;43.236;27.986;2024-02-14T12:52:15;100037.78;;;6.56;100.00
10310;BME280;5200;43.236;27.986;2024-02-14T12:54:43;100044.03;;;6.66;100.00
10310;BME280;5200;43.236;27.986;2024-02-14T12:57:10;100060.75;;;6.64;100.00
10310;BME280;5200;43.236;27.986;2024-02-14T12:59:38;100060.47;;;6.55;100.00
10310;BME280;5200;43.236;27.986;2024-02-14T13:02:05;100056.19;;;6.54;100.00